Time;durP1;ratioP1;P1;durP2;ratioP2;P2;SDS_P1;SDS_P2;PMS_P1;PMS_P2;Temp;Humidity;BMP_temperature;BMP_pressure;BME280_temperature;BME280_humidity;BME280_pressure;Samples;Min_cycle;Max_cycle;Signal;HPM_P1;HPM_P2
2022/12/28 00:02:20;;;;;;;11.55;2.50;;;;;;;;;;5023528;28;20477;-74
2022/12/28 00:04:46;;;;;;;10.45;2.67;;;;;;;;;;5022693;28;20037;-74
2022/12/28 00:07:11;;;;;;;10.68;2.72;;;;;;;;;;5026002;28;20481;-74
2022/12/28 00:09:37;;;;;;;5.80;2.30;;;;;;;;;;5030461;28;20025;-74
2022/12/28 00:12:02;;;;;;;9.93;2.15;;;;;;;;;;5029197;28;20487;-74
2022/12/28 00:14:27;;;;;;;10.23;2.47;;;;;;;;;;5026327;28;20033;-73
2022/12/28 00:16:53;;;;;;;11.27;2.28;;;;;;;;;;5022451;28;20030;-74
2022/12/28 00:19:18;;;;;;;11.65;1.80;;;;;;;;;;5023320;28;20045;-74
2022/12/28 00:21:44;;;;;;;9.68;1.75;;;;;;;;;;5022205;28;20432;-73
2022/12/28 00:24:21;;;;;;;13.20;2.60;;;;;;;;;;5024680;28;20109;-74
2022/12/28 00:26:46;;;;;;;7.60;2.00;;;;;;;;;;5020149;28;20045;-74
2022/12/28 00:29:12;;;;;;;10.13;2.20;;;;;;;;;;5026364;28;20033;-74
2022/12/28 00:31:37;;;;;;;16.88;2.40;;;;;;;;;;5025957;28;20050;-74
2022/12/28 00:34:03;;;;;;;7.68;1.65;;;;;;;;;;5029317;28;20065;-74
2022/12/28 00:36:29;;;;;;;7.70;1.98;;;;;;;;;;5026641;28;20087;-73
2022/12/28 00:38:55;;;;;;;9.65;1.70;;;;;;;;;;5027002;28;20496;-73
2022/12/28 00:41:20;;;;;;;6.32;1.38;;;;;;;;;;5022894;28;20064;-74
2022/12/28 00:43:45;;;;;;;8.57;1.48;;;;;;;;;;5017109;28;20032;-74
2022/12/28 00:46:11;;;;;;;8.45;1.55;;;;;;;;;;5019444;28;20038;-74
2022/12/28 00:48:36;;;;;;;8.18;1.50;;;;;;;;;;5018364;28;20077;-74
2022/12/28 00:51:07;;;;;;;8.60;1.73;;;;;;;;;;5019617;28;20076;-73
2022/12/28 00:53:33;;;;;;;6.35;1.83;;;;;;;;;;5005843;28;20439;-73
2022/12/28 00:56:28;;;;;;;8.32;1.73;;;;;;;;;;5016910;28;20061;-74
2022/12/28 00:58:56;;;;;;;;;;;;;;;;;;5013988;28;20500;-73
2022/12/28 01:01:22;;;;;;;8.25;1.40;;;;;;;;;;5024050;28;19912;-74
2022/12/28 01:03:48;;;;;;;8.65;1.58;;;;;;;;;;5022713;28;20084;-73
2022/12/28 01:06:16;;;;;;;14.57;1.77;;;;;;;;;;5030682;28;20041;-74
2022/12/28 01:08:42;;;;;;;6.43;1.55;;;;;;;;;;5029512;28;20733;-74
2022/12/28 01:11:19;;;;;;;8.27;1.20;;;;;;;;;;5015187;28;20049;-74
2022/12/28 01:13:44;;;;;;;8.75;1.77;;;;;;;;;;5017831;28;20037;-74
2022/12/28 01:16:11;;;;;;;7.72;1.35;;;;;;;;;;5016025;28;20033;-74
2022/12/28 01:18:36;;;;;;;18.00;2.08;;;;;;;;;;5022023;28;20398;-74
2022/12/28 01:21:13;;;;;;;12.73;2.03;;;;;;;;;;5024412;28;20057;-74
2022/12/28 01:23:38;;;;;;;7.60;1.40;;;;;;;;;;5025626;28;20041;-73
2022/12/28 01:26:04;;;;;;;11.88;1.83;;;;;;;;;;5022632;28;20117;-74
2022/12/28 01:28:29;;;;;;;10.70;2.10;;;;;;;;;;5019012;28;20474;-74
2022/12/28 01:30:55;;;;;;;9.50;1.45;;;;;;;;;;5016365;28;20117;-73
2022/12/28 01:33:20;;;;;;;13.25;1.55;;;;;;;;;;5028860;28;20048;-74
2022/12/28 01:35:45;;;;;;;14.57;1.55;;;;;;;;;;5027048;28;20030;-74
2022/12/28 01:38:11;;;;;;;14.80;1.55;;;;;;;;;;5032472;28;20382;-74
2022/12/28 01:40:36;;;;;;;10.35;1.65;;;;;;;;;;5020127;28;20036;-74
2022/12/28 01:43:06;;;;;;;12.50;1.58;;;;;;;;;;5023169;28;20030;-74
2022/12/28 01:45:31;;;;;;;21.27;1.83;;;;;;;;;;5024007;28;20042;-74
2022/12/28 01:47:57;;;;;;;19.55;1.95;;;;;;;;;;5023877;28;20540;-74
2022/12/28 01:50:25;;;;;;;21.85;2.38;;;;;;;;;;5019665;28;20053;-73
2022/12/28 01:52:58;;;;;;;19.88;2.10;;;;;;;;;;5017108;28;20445;-73
2022/12/28 01:55:27;;;;;;;12.30;1.75;;;;;;;;;;5024691;28;20538;-73
2022/12/28 01:58:00;;;;;;;19.33;2.20;;;;;;;;;;5024995;28;20042;-74
2022/12/28 02:00:26;;;;;;;16.73;2.15;;;;;;;;;;5027799;28;20037;-74
2022/12/28 02:02:58;;;;;;;17.48;2.00;;;;;;;;;;5023153;28;20109;-74
2022/12/28 02:05:28;;;;;;;18.80;2.08;;;;;;;;;;5029341;28;20060;-73
2022/12/28 02:08:05;;;;;;;19.75;1.90;;;;;;;;;;5026012;28;20489;-74
2022/12/28 02:10:32;;;;;;;22.70;2.40;;;;;;;;;;5029482;28;20496;-74
2022/12/28 02:12:58;;;;;;;18.75;2.20;;;;;;;;;;5022899;28;20099;-74
2022/12/28 02:15:23;;;;;;;21.27;2.83;;;;;;;;;;5017533;28;20044;-74
2022/12/28 02:17:49;;;;;;;25.52;2.78;;;;;;;;;;5023026;28;20033;-74
2022/12/28 02:20:16;;;;;;;17.10;1.83;;;;;;;;;;5014248;28;20033;-74
2022/12/28 02:23:03;;;;;;;14.32;1.85;;;;;;;;;;5025976;28;20034;-74
2022/12/28 02:25:55;;;;;;;32.20;3.08;;;;;;;;;;5025206;28;20481;-74
2022/12/28 02:28:55;;;;;;;16.70;1.85;;;;;;;;;;5020930;28;20076;-74
2022/12/28 02:31:27;;;;;;;13.45;1.77;;;;;;;;;;5018672;28;20045;-74
2022/12/28 02:34:02;;;;;;;25.45;1.92;;;;;;;;;;5021424;28;20035;-73
2022/12/28 02:36:32;;;;;;;24.23;2.28;;;;;;;;;;5021714;28;20474;-73
2022/12/28 02:39:08;;;;;;;21.00;1.80;;;;;;;;;;5023523;28;20054;-74
2022/12/28 02:41:35;;;;;;;17.67;1.58;;;;;;;;;;5019263;28;20045;-73
2022/12/28 02:44:00;;;;;;;8.68;1.23;;;;;;;;;;5024442;28;20084;-74
2022/12/28 02:52:14;;;;;;;14.55;1.95;;;;;;;;;;5025113;28;20099;-74
2022/12/28 02:57:48;;;;;;;4.13;1.20;;;;;;;;;;5025165;28;20089;-73
2022/12/28 03:00:21;;;;;;;10.20;1.38;;;;;;;;;;5020066;28;20041;-74
2022/12/28 03:03:11;;;;;;;9.88;1.42;;;;;;;;;;5023091;28;20087;-73
2022/12/28 03:08:43;;;;;;;8.18;1.08;;;;;;;;;;5028520;28;20100;-74
2022/12/28 03:11:16;;;;;;;5.10;0.82;;;;;;;;;;5016653;28;20041;-74
2022/12/28 03:14:00;;;;;;;10.55;1.02;;;;;;;;;;5022525;28;20033;-74
2022/12/28 03:25:41;;;;;;;10.50;1.40;;;;;;;;;;5023115;28;20026;-73
2022/12/28 03:33:04;;;;;;;8.80;1.27;;;;;;;;;;5028780;28;20152;-74
2022/12/28 03:35:59;;;;;;;5.72;0.93;;;;;;;;;;5033468;28;20116;-74
2022/12/28 03:38:38;;;;;;;3.40;0.82;;;;;;;;;;5016154;28;20073;-74
2022/12/28 03:41:08;;;;;;;5.78;0.80;;;;;;;;;;5014416;28;20037;-74
2022/12/28 03:43:55;;;;;;;8.23;1.80;;;;;;;;;;5025108;28;20460;-74
2022/12/28 03:46:28;;;;;;;2.97;0.70;;;;;;;;;;5013381;28;20083;-74
2022/12/28 03:48:56;;;;;;;10.43;1.05;;;;;;;;;;5018606;28;20069;-74
2022/12/28 03:51:23;;;;;;;5.78;0.88;;;;;;;;;;5028678;28;20037;-74
2022/12/28 03:53:49;;;;;;;5.03;1.20;;;;;;;;;;5025738;28;20043;-74
2022/12/28 03:56:17;;;;;;;6.88;0.85;;;;;;;;;;5023031;28;20037;-74
2022/12/28 03:58:43;;;;;;;9.63;1.15;;;;;;;;;;5026814;28;20037;-74
2022/12/28 04:01:09;;;;;;;3.10;0.90;;;;;;;;;;5016078;28;20508;-74
2022/12/28 04:03:35;;;;;;;12.52;1.38;;;;;;;;;;5030824;28;20053;-73
2022/12/28 04:06:00;;;;;;;5.28;0.93;;;;;;;;;;5021303;28;20069;-74
2022/12/28 04:08:26;;;;;;;4.15;0.90;;;;;;;;;;5021704;28;20033;-74
2022/12/28 04:10:52;;;;;;;5.68;1.20;;;;;;;;;;5015995;28;20030;-74
2022/12/28 04:13:17;;;;;;;8.70;1.30;;;;;;;;;;5032535;28;20064;-74
2022/12/28 04:15:42;;;;;;;9.27;1.13;;;;;;;;;;5025789;28;20025;-74
2022/12/28 04:18:08;;;;;;;8.27;1.08;;;;;;;;;;5028728;28;20041;-74
2022/12/28 04:20:33;;;;;;;10.02;1.33;;;;;;;;;;5033243;28;20045;-74
2022/12/28 04:22:59;;;;;;;4.20;1.10;;;;;;;;;;5014945;28;20073;-74
2022/12/28 04:25:24;;;;;;;10.02;1.17;;;;;;;;;;5022364;28;20034;-73
2022/12/28 04:27:50;;;;;;;7.47;1.25;;;;;;;;;;5021878;28;20038;-74
2022/12/28 04:30:15;;;;;;;10.25;1.58;;;;;;;;;;5027294;28;20113;-74
2022/12/28 04:32:40;;;;;;;7.13;1.05;;;;;;;;;;5016641;28;20044;-74
2022/12/28 04:35:06;;;;;;;7.15;0.88;;;;;;;;;;5024151;28;20049;-74
2022/12/28 04:37:35;;;;;;;6.45;1.13;;;;;;;;;;5031778;28;20065;-74
2022/12/28 04:40:00;;;;;;;13.80;1.27;;;;;;;;;;5023929;28;20049;-74
2022/12/28 04:42:26;;;;;;;11.45;0.63;;;;;;;;;;5027881;28;20033;-74
2022/12/28 04:44:51;;;;;;;7.45;0.77;;;;;;;;;;5020483;28;20526;-73
2022/12/28 04:47:17;;;;;;;5.68;1.02;;;;;;;;;;5020599;28;20366;-74
2022/12/28 04:49:42;;;;;;;6.55;0.90;;;;;;;;;;5026998;28;20441;-74
2022/12/28 04:52:07;;;;;;;9.25;1.00;;;;;;;;;;5024499;28;20026;-74
2022/12/28 04:54:33;;;;;;;3.97;0.80;;;;;;;;;;5029194;28;20091;-74
2022/12/28 04:56:58;;;;;;;1.48;0.55;;;;;;;;;;5024225;28;20057;-74
2022/12/28 04:59:23;;;;;;;5.07;0.63;;;;;;;;;;5018442;28;20454;-74
2022/12/28 05:01:49;;;;;;;4.28;0.70;;;;;;;;;;5015513;28;20044;-74
2022/12/28 05:04:14;;;;;;;4.03;0.70;;;;;;;;;;5021992;28;20099;-74
2022/12/28 05:06:40;;;;;;;5.32;0.98;;;;;;;;;;5004574;28;20474;-74
2022/12/28 05:09:05;;;;;;;3.90;0.80;;;;;;;;;;5026587;28;20504;-74
2022/12/28 05:11:30;;;;;;;9.10;1.05;;;;;;;;;;5023892;28;20049;-74
2022/12/28 05:13:56;;;;;;;2.20;0.80;;;;;;;;;;5029126;28;20034;-74
2022/12/28 05:16:24;;;;;;;1.80;0.90;;;;;;;;;;5016330;28;20046;-75
2022/12/28 05:18:49;;;;;;;3.80;0.90;;;;;;;;;;5023341;28;20037;-74
2022/12/28 05:21:23;;;;;;;3.00;0.95;;;;;;;;;;5023128;28;20088;-74
2022/12/28 05:23:49;;;;;;;6.20;0.95;;;;;;;;;;5029099;28;20504;-74
2022/12/28 05:26:24;;;;;;;2.00;0.98;;;;;;;;;;5019553;28;20038;-74
2022/12/28 05:28:50;;;;;;;4.55;0.95;;;;;;;;;;5010367;28;20041;-74
2022/12/28 05:31:18;;;;;;;1.90;0.63;;;;;;;;;;5018653;28;20410;-75
2022/12/28 05:33:43;;;;;;;3.20;0.80;;;;;;;;;;5021064;28;20036;-74
2022/12/28 05:36:11;;;;;;;1.58;0.57;;;;;;;;;;5017527;28;20038;-74
2022/12/28 05:38:36;;;;;;;2.05;0.70;;;;;;;;;;5024526;28;20030;-74
2022/12/28 05:41:06;;;;;;;1.83;0.70;;;;;;;;;;5025358;28;20041;-74
2022/12/28 05:43:32;;;;;;;2.65;0.70;;;;;;;;;;5024018;28;20564;-74
2022/12/28 05:46:06;;;;;;;1.60;0.57;;;;;;;;;;5021460;28;20116;-74
2022/12/28 05:48:32;;;;;;;0.75;0.40;;;;;;;;;;5028609;28;20049;-74
2022/12/28 05:51:09;;;;;;;1.00;0.50;;;;;;;;;;5025774;28;20427;-74
2022/12/28 05:53:35;;;;;;;2.60;0.40;;;;;;;;;;5012385;28;20444;-74
2022/12/28 05:56:06;;;;;;;1.42;0.60;;;;;;;;;;5031110;28;20049;-74
2022/12/28 05:58:32;;;;;;;1.55;0.52;;;;;;;;;;5018526;28;20030;-74
2022/12/28 06:01:12;;;;;;;1.73;0.63;;;;;;;;;;5030838;28;20053;-74
2022/12/28 06:03:38;;;;;;;1.73;0.50;;;;;;;;;;5029860;28;20807;-74
2022/12/28 06:06:09;;;;;;;2.05;0.70;;;;;;;;;;5026181;28;20038;-74
2022/12/28 06:08:37;;;;;;;1.92;0.70;;;;;;;;;;5027488;28;20120;-74
2022/12/28 06:11:05;;;;;;;2.13;0.50;;;;;;;;;;5019673;28;20049;-74
2022/12/28 06:13:31;;;;;;;1.38;0.50;;;;;;;;;;5021303;28;20092;-74
2022/12/28 06:15:57;;;;;;;1.38;0.65;;;;;;;;;;5027500;28;20037;-74
2022/12/28 06:18:23;;;;;;;2.85;0.65;;;;;;;;;;5025926;28;20056;-74
2022/12/28 06:20:48;;;;;;;2.47;0.82;;;;;;;;;;5021885;28;20026;-74
2022/12/28 06:23:14;;;;;;;2.70;0.85;;;;;;;;;;5025148;28;20385;-74
2022/12/28 06:25:39;;;;;;;1.83;0.80;;;;;;;;;;5029703;28;20041;-74
2022/12/28 06:28:04;;;;;;;5.25;1.02;;;;;;;;;;5021284;28;20037;-74
2022/12/28 06:30:30;;;;;;;3.35;1.23;;;;;;;;;;5026997;28;20026;-74
2022/12/28 06:32:56;;;;;;;4.22;1.30;;;;;;;;;;5026141;28;20056;-74
2022/12/28 06:35:21;;;;;;;5.53;1.20;;;;;;;;;;5021878;28;20060;-74
2022/12/28 06:37:47;;;;;;;3.90;1.27;;;;;;;;;;5028569;28;20094;-74
2022/12/28 06:40:13;;;;;;;3.92;1.30;;;;;;;;;;5023404;28;20030;-74
2022/12/28 06:42:38;;;;;;;3.00;1.23;;;;;;;;;;5027219;28;20051;-74
2022/12/28 06:45:04;;;;;;;4.10;1.35;;;;;;;;;;5018846;28;20033;-74
2022/12/28 06:47:29;;;;;;;3.70;1.48;;;;;;;;;;5024810;28;20103;-74
2022/12/28 06:49:55;;;;;;;4.90;1.92;;;;;;;;;;5021974;28;20050;-74
2022/12/28 06:52:20;;;;;;;4.97;1.60;;;;;;;;;;5025396;28;20044;-75
2022/12/28 06:54:46;;;;;;;4.15;2.00;;;;;;;;;;5031854;28;20068;-74
2022/12/28 06:57:11;;;;;;;3.40;1.70;;;;;;;;;;5032990;28;20075;-74
2022/12/28 06:59:36;;;;;;;2.58;1.30;;;;;;;;;;5028694;28;20032;-74
2022/12/28 07:02:02;;;;;;;6.85;1.92;;;;;;;;;;5029158;28;20034;-75
2022/12/28 07:04:27;;;;;;;3.72;1.60;;;;;;;;;;5026862;28;20523;-74
2022/12/28 07:06:53;;;;;;;2.83;1.40;;;;;;;;;;5033698;28;20025;-74
2022/12/28 07:09:18;;;;;;;4.95;1.60;;;;;;;;;;5022457;28;20041;-74
2022/12/28 07:11:44;;;;;;;3.53;1.75;;;;;;;;;;5030967;28;20527;-74
2022/12/28 07:14:10;;;;;;;4.72;1.27;;;;;;;;;;5029554;28;20033;-74
2022/12/28 07:16:36;;;;;;;2.30;1.30;;;;;;;;;;5023924;28;20034;-74
2022/12/28 07:19:01;;;;;;;2.47;0.88;;;;;;;;;;5028661;28;20083;-74
2022/12/28 07:21:33;;;;;;;2.13;0.93;;;;;;;;;;5030031;28;20034;-74
2022/12/28 07:23:59;;;;;;;3.13;1.02;;;;;;;;;;5031942;28;20053;-74
2022/12/28 07:26:27;;;;;;;2.00;1.10;;;;;;;;;;5021518;28;21266;-74
2022/12/28 07:28:54;;;;;;;3.53;1.20;;;;;;;;;;5014514;28;20030;-74
2022/12/28 07:31:34;;;;;;;2.35;1.15;;;;;;;;;;5018772;28;20053;-74
2022/12/28 07:34:00;;;;;;;4.75;2.22;;;;;;;;;;5018446;28;20032;-74
2022/12/28 07:36:28;;;;;;;3.08;1.33;;;;;;;;;;5027165;28;20041;-74
2022/12/28 07:38:53;;;;;;;4.90;1.38;;;;;;;;;;5018183;28;20033;-74
2022/12/28 07:41:24;;;;;;;4.93;1.85;;;;;;;;;;5019109;28;20034;-74
2022/12/28 07:43:50;;;;;;;4.72;2.22;;;;;;;;;;5030276;28;20513;-74
2022/12/28 07:46:18;;;;;;;2.95;1.50;;;;;;;;;;5016937;28;20037;-74
2022/12/28 07:48:44;;;;;;;2.80;1.58;;;;;;;;;;5026973;28;20072;-74
2022/12/28 07:51:22;;;;;;;3.13;1.73;;;;;;;;;;5023708;28;20037;-74
2022/12/28 07:53:49;;;;;;;2.50;1.27;;;;;;;;;;5030635;28;20029;-74
2022/12/28 07:56:15;;;;;;;4.45;1.52;;;;;;;;;;5029335;28;20103;-74
2022/12/28 07:58:40;;;;;;;3.85;1.45;;;;;;;;;;5031471;28;20033;-74
2022/12/28 08:01:11;;;;;;;3.22;1.35;;;;;;;;;;5021542;28;20473;-74
2022/12/28 08:03:38;;;;;;;3.20;1.70;;;;;;;;;;5032455;28;20088;-74
2022/12/28 08:06:08;;;;;;;3.50;1.10;;;;;;;;;;5027273;28;20075;-74
2022/12/28 08:08:38;;;;;;;8.25;1.23;;;;;;;;;;5021335;28;20081;-74
2022/12/28 08:11:06;;;;;;;2.10;1.00;;;;;;;;;;5014278;28;20037;-74
2022/12/28 08:13:33;;;;;;;5.03;1.15;;;;;;;;;;5019759;28;20052;-74
2022/12/28 08:15:59;;;;;;;6.15;1.20;;;;;;;;;;5019107;28;20041;-74
2022/12/28 08:18:24;;;;;;;3.22;1.40;;;;;;;;;;5019478;28;20041;-74
2022/12/28 08:20:50;;;;;;;2.55;1.33;;;;;;;;;;5027138;28;20057;-74
2022/12/28 08:23:15;;;;;;;5.75;1.45;;;;;;;;;;5020317;28;20045;-75
2022/12/28 08:25:41;;;;;;;4.30;1.17;;;;;;;;;;5014662;28;20527;-74
2022/12/28 08:28:06;;;;;;;3.63;1.08;;;;;;;;;;5028142;28;20038;-74
2022/12/28 08:30:31;;;;;;;1.42;0.55;;;;;;;;;;5025036;28;20116;-74
2022/12/28 08:32:57;;;;;;;6.47;1.05;;;;;;;;;;5017640;28;20045;-74
2022/12/28 08:35:22;;;;;;;5.18;1.20;;;;;;;;;;5017177;28;20044;-75
2022/12/28 08:37:47;;;;;;;6.82;1.02;;;;;;;;;;5019633;28;20116;-74
2022/12/28 08:40:13;;;;;;;1.08;0.50;;;;;;;;;;5016417;28;20168;-74
2022/12/28 08:42:38;;;;;;;12.25;1.02;;;;;;;;;;5028962;28;20393;-74
2022/12/28 08:45:04;;;;;;;6.28;1.23;;;;;;;;;;5029483;28;20382;-74
2022/12/28 08:47:30;;;;;;;7.72;1.13;;;;;;;;;;5017312;28;20033;-74
2022/12/28 08:49:55;;;;;;;6.65;1.10;;;;;;;;;;5018632;28;20033;-74
2022/12/28 08:52:21;;;;;;;14.23;1.63;;;;;;;;;;5019822;28;20474;-74
2022/12/28 08:54:46;;;;;;;9.95;1.27;;;;;;;;;;5026160;28;20040;-74
2022/12/28 08:57:11;;;;;;;4.68;0.82;;;;;;;;;;5025832;28;20432;-74
2022/12/28 08:59:37;;;;;;;13.38;1.73;;;;;;;;;;5022016;28;20113;-74
2022/12/28 09:02:02;;;;;;;5.50;1.23;;;;;;;;;;5027950;28;20034;-74
2022/12/28 09:04:28;;;;;;;12.93;1.70;;;;;;;;;;5030125;28;20029;-74
2022/12/28 09:06:53;;;;;;;15.65;1.70;;;;;;;;;;5029676;28;20040;-74
2022/12/28 09:09:19;;;;;;;10.25;1.50;;;;;;;;;;5032686;28;20060;-74
2022/12/28 09:11:45;;;;;;;4.88;1.20;;;;;;;;;;5015281;28;20041;-74
2022/12/28 09:14:12;;;;;;;9.57;1.30;;;;;;;;;;5013760;28;20057;-74
2022/12/28 09:16:38;;;;;;;12.32;1.95;;;;;;;;;;5018362;28;20048;-74
2022/12/28 09:19:07;;;;;;;8.52;1.50;;;;;;;;;;5015986;28;20037;-74
2022/12/28 09:21:36;;;;;;;9.27;1.58;;;;;;;;;;5017693;28;20033;-74
2022/12/28 09:24:02;;;;;;;13.75;2.00;;;;;;;;;;5019796;28;20065;-74
2022/12/28 09:26:32;;;;;;;5.80;1.77;;;;;;;;;;5021761;28;20123;-74
2022/12/28 09:29:00;;;;;;;8.23;1.58;;;;;;;;;;5026157;28;20036;-74
2022/12/28 09:31:27;;;;;;;17.00;1.70;;;;;;;;;;5023572;28;20041;-75
2022/12/28 09:33:59;;;;;;;6.40;1.00;;;;;;;;;;5019188;28;20041;-74
2022/12/28 09:36:29;;;;;;;8.75;1.48;;;;;;;;;;5013974;28;20516;-75
2022/12/28 09:38:56;;;;;;;9.85;1.80;;;;;;;;;;5020817;28;20115;-74
2022/12/28 09:41:41;;;;;;;8.38;1.35;;;;;;;;;;5030297;28;20565;-75
2022/12/28 09:44:14;;;;;;;10.90;1.50;;;;;;;;;;5015884;28;20042;-74
2022/12/28 09:46:41;;;;;;;12.20;1.80;;;;;;;;;;5032131;28;20041;-74
2022/12/28 09:49:14;;;;;;;7.90;1.80;;;;;;;;;;5017606;28;20081;-74
2022/12/28 09:51:46;;;;;;;13.02;2.15;;;;;;;;;;5024713;28;20041;-74
2022/12/28 09:54:11;;;;;;;15.90;2.22;;;;;;;;;;5031194;28;20099;-74
2022/12/28 09:56:38;;;;;;;21.65;2.22;;;;;;;;;;5034757;28;20045;-74
2022/12/28 09:59:05;;;;;;;13.85;1.67;;;;;;;;;;5025185;28;20423;-74
2022/12/28 10:01:34;;;;;;;14.57;2.42;;;;;;;;;;5022516;28;20120;-74
2022/12/28 10:04:00;;;;;;;13.75;1.60;;;;;;;;;;5026143;28;20061;-74
2022/12/28 10:06:27;;;;;;;9.15;1.30;;;;;;;;;;5019585;28;20425;-74
2022/12/28 10:08:55;;;;;;;15.07;1.98;;;;;;;;;;5020668;28;20037;-74
2022/12/28 10:11:23;;;;;;;10.63;1.25;;;;;;;;;;5012638;28;20038;-74
2022/12/28 10:13:57;;;;;;;14.15;1.83;;;;;;;;;;5033877;28;20468;-74
2022/12/28 10:16:24;;;;;;;13.32;1.77;;;;;;;;;;5018345;28;20117;-75
2022/12/28 10:18:50;;;;;;;8.15;2.30;;;;;;;;;;5021420;28;20600;-74
2022/12/28 10:21:18;;;;;;;9.07;1.67;;;;;;;;;;5020867;28;20041;-74
2022/12/28 10:23:46;;;;;;;10.10;1.45;;;;;;;;;;5031465;28;20040;-74
2022/12/28 10:26:15;;;;;;;9.32;1.48;;;;;;;;;;5032816;28;20060;-75
2022/12/28 10:28:47;;;;;;;5.45;1.45;;;;;;;;;;5022014;28;20063;-74
2022/12/28 10:31:13;;;;;;;4.75;1.20;;;;;;;;;;5027820;28;20044;-74
2022/12/28 10:33:40;;;;;;;9.02;1.38;;;;;;;;;;5028033;28;20025;-74
2022/12/28 10:36:12;;;;;;;7.78;1.20;;;;;;;;;;5024567;28;20435;-74
2022/12/28 10:38:40;;;;;;;8.10;1.30;;;;;;;;;;5029093;28;20121;-74
2022/12/28 10:41:10;;;;;;;4.63;1.23;;;;;;;;;;5019262;28;20425;-74
2022/12/28 10:43:39;;;;;;;4.57;1.42;;;;;;;;;;5021995;28;20448;-74
2022/12/28 10:46:11;;;;;;;11.63;1.40;;;;;;;;;;5023102;28;20036;-74
2022/12/28 10:48:38;;;;;;;6.43;1.50;;;;;;;;;;5031334;28;20058;-74
2022/12/28 10:51:13;;;;;;;7.80;1.70;;;;;;;;;;5033042;28;20037;-74
2022/12/28 10:53:38;;;;;;;13.10;1.45;;;;;;;;;;5032641;28;20432;-74
2022/12/28 10:56:12;;;;;;;5.28;0.98;;;;;;;;;;5031005;28;20042;-74
2022/12/28 10:58:45;;;;;;;4.82;1.27;;;;;;;;;;5025182;28;20061;-74
2022/12/28 11:01:13;;;;;;;8.47;1.63;;;;;;;;;;5023714;28;20379;-74
2022/12/28 11:03:38;;;;;;;11.25;1.40;;;;;;;;;;5020545;28;20030;-74
2022/12/28 11:06:08;;;;;;;8.60;0.85;;;;;;;;;;5022892;28;20041;-74
2022/12/28 11:08:35;;;;;;;9.52;1.80;;;;;;;;;;5027564;28;20118;-74
2022/12/28 11:11:01;;;;;;;7.82;1.60;;;;;;;;;;5023568;28;20033;-74
2022/12/28 11:13:26;;;;;;;8.40;1.10;;;;;;;;;;5027470;28;20033;-74
2022/12/28 11:15:51;;;;;;;6.72;1.88;;;;;;;;;;5027365;28;20104;-74
2022/12/28 11:18:17;;;;;;;5.75;1.30;;;;;;;;;;5029870;28;20029;-74
2022/12/28 11:20:48;;;;;;;2.53;0.80;;;;;;;;;;5025754;28;20124;-74
2022/12/28 11:23:24;;;;;;;3.42;0.98;;;;;;;;;;5025689;28;20477;-75
2022/12/28 11:25:50;;;;;;;5.85;0.98;;;;;;;;;;5031587;28;20076;-74
2022/12/28 11:28:20;;;;;;;4.43;0.90;;;;;;;;;;5027547;28;20456;-74
2022/12/28 11:30:47;;;;;;;5.20;1.23;;;;;;;;;;5024873;28;20034;-74
2022/12/28 11:33:45;;;;;;;6.72;1.15;;;;;;;;;;5018529;28;20034;-75
2022/12/28 11:36:13;;;;;;;7.88;1.13;;;;;;;;;;5020391;28;20069;-74
2022/12/28 11:38:46;;;;;;;7.22;0.95;;;;;;;;;;5037326;28;20489;-74
2022/12/28 11:41:38;;;;;;;3.23;0.70;;;;;;;;;;5022062;28;20038;-74
2022/12/28 11:44:04;;;;;;;6.82;0.93;;;;;;;;;;5018822;28;20029;-74
2022/12/28 11:46:29;;;;;;;6.65;1.38;;;;;;;;;;5019640;28;20045;-74
2022/12/28 11:48:57;;;;;;;12.13;1.55;;;;;;;;;;5023809;28;20049;-74
2022/12/28 11:51:33;;;;;;;9.05;1.23;;;;;;;;;;5022616;28;20033;-74
2022/12/28 11:54:31;;;;;;;5.95;0.75;;;;;;;;;;5011932;28;20169;-73
2022/12/28 11:56:58;;;;;;;6.45;1.25;;;;;;;;;;5023542;28;20482;-74
2022/12/28 11:59:29;;;;;;;6.70;0.90;;;;;;;;;;5016101;28;20411;-74
2022/12/28 12:02:02;;;;;;;12.25;1.33;;;;;;;;;;5020147;28;20116;-74
2022/12/28 12:04:36;;;;;;;3.17;0.70;;;;;;;;;;5023413;28;20045;-74
2022/12/28 12:07:01;;;;;;;;;;;;;;;;;;5021891;28;20049;-74
2022/12/28 12:09:31;;;;;;;3.00;0.95;;;;;;;;;;5024854;28;19935;-74
2022/12/28 12:11:58;;;;;;;13.40;2.55;;;;;;;;;;5026609;28;20121;-74
2022/12/28 12:14:50;;;;;;;5.72;1.13;;;;;;;;;;5022919;28;20071;-74
2022/12/28 12:17:15;;;;;;;7.50;1.10;;;;;;;;;;5019420;28;20054;-74
2022/12/28 12:19:47;;;;;;;0.75;0.50;;;;;;;;;;5021058;28;20038;-74
2022/12/28 12:22:24;;;;;;;5.32;0.90;;;;;;;;;;5016750;28;20045;-74
2022/12/28 12:24:56;;;;;;;1.73;0.60;;;;;;;;;;5029523;28;20504;-74
2022/12/28 12:27:35;;;;;;;5.00;0.90;;;;;;;;;;5021982;28;20041;-74
2022/12/28 12:30:06;;;;;;;3.97;0.68;;;;;;;;;;5019770;28;20087;-74
2022/12/28 12:32:39;;;;;;;5.40;0.60;;;;;;;;;;5026004;28;20048;-75
2022/12/28 12:35:06;;;;;;;2.08;0.82;;;;;;;;;;5018366;28;20482;-74
2022/12/28 12:37:50;;;;;;;2.75;0.68;;;;;;;;;;5024718;28;20045;-74
2022/12/28 12:40:57;;;;;;;1.17;0.55;;;;;;;;;;5001340;28;20040;-74
2022/12/28 12:43:34;;;;;;;3.78;1.20;;;;;;;;;;5029028;28;20148;-74
2022/12/28 12:46:29;;;;;;;3.35;1.05;;;;;;;;;;5020211;28;20042;-74
2022/12/28 12:49:22;;;;;;;2.97;0.70;;;;;;;;;;5007639;28;20048;-74
2022/12/28 12:52:03;;;;;;;1.25;0.80;;;;;;;;;;5019626;28;20096;-74
2022/12/28 12:55:06;;;;;;;2.83;1.15;;;;;;;;;;5023857;28;20136;-74
2022/12/28 12:57:31;;;;;;;5.78;0.82;;;;;;;;;;5014862;28;20046;-74
2022/12/28 13:00:11;;;;;;;7.70;0.77;;;;;;;;;;5023086;28;20041;-74
2022/12/28 13:02:58;;;;;;;1.60;0.50;;;;;;;;;;5013968;28;20057;-74
2022/12/28 13:05:26;;;;;;;6.13;0.88;;;;;;;;;;5015930;28;20052;-74
2022/12/28 13:07:54;;;;;;;2.33;0.70;;;;;;;;;;5015340;28;20524;-74
2022/12/28 13:10:25;;;;;;;2.75;0.80;;;;;;;;;;5018364;28;20049;-74
2022/12/28 13:12:53;;;;;;;4.38;0.90;;;;;;;;;;5032948;28;20423;-74
2022/12/28 13:15:19;;;;;;;1.35;0.40;;;;;;;;;;5018525;28;20041;-74
2022/12/28 13:18:06;;;;;;;2.25;0.50;;;;;;;;;;5031511;28;20044;-74
2022/12/28 13:20:32;;;;;;;5.18;0.77;;;;;;;;;;5028191;28;20080;-74
2022/12/28 13:22:57;;;;;;;2.22;0.90;;;;;;;;;;5026472;28;20053;-74
2022/12/28 13:25:23;;;;;;;0.65;0.43;;;;;;;;;;5027679;28;20120;-74
2022/12/28 13:27:48;;;;;;;3.58;0.70;;;;;;;;;;5023929;28;20381;-74
2022/12/28 13:30:18;;;;;;;1.52;0.68;;;;;;;;;;5027283;28;20037;-74
2022/12/28 13:32:58;;;;;;;0.90;0.60;;;;;;;;;;5024953;28;20044;-75
2022/12/28 13:35:29;;;;;;;2.22;0.60;;;;;;;;;;5021775;28;20120;-74
2022/12/28 13:38:11;;;;;;;2.05;0.80;;;;;;;;;;5027164;28;20124;-74
2022/12/28 13:40:38;;;;;;;2.45;1.25;;;;;;;;;;5015511;28;20052;-74
2022/12/28 13:43:33;;;;;;;1.13;0.50;;;;;;;;;;5013326;28;20397;-74
2022/12/28 13:46:06;;;;;;;2.08;0.50;;;;;;;;;;5015524;28;20042;-74
2022/12/28 13:48:33;;;;;;;4.40;0.77;;;;;;;;;;5013508;28;20037;-74
2022/12/28 13:50:58;;;;;;;2.53;0.70;;;;;;;;;;5018250;28;20042;-74
2022/12/28 13:53:26;;;;;;;0.93;0.60;;;;;;;;;;5019826;28;20436;-74
2022/12/28 13:55:53;;;;;;;6.88;1.35;;;;;;;;;;5020454;28;20129;-74
2022/12/28 13:58:24;;;;;;;5.55;1.00;;;;;;;;;;5015793;28;20120;-75
2022/12/28 14:00:52;;;;;;;9.82;1.00;;;;;;;;;;5026265;28;20037;-74
2022/12/28 14:03:18;;;;;;;12.15;1.67;;;;;;;;;;5018518;28;20450;-74
2022/12/28 14:05:47;;;;;;;17.83;1.88;;;;;;;;;;5015172;28;20041;-74
2022/12/28 14:08:13;;;;;;;15.15;2.40;;;;;;;;;;5001879;28;20474;-74
2022/12/28 14:10:39;;;;;;;15.68;1.88;;;;;;;;;;5015593;28;20042;-74
2022/12/28 14:13:07;;;;;;;11.75;2.08;;;;;;;;;;5023568;28;20071;-75
2022/12/28 14:15:34;;;;;;;14.95;2.65;;;;;;;;;;5020675;28;20110;-74
2022/12/28 14:18:00;;;;;;;28.80;2.47;;;;;;;;;;5026867;28;20095;-74
2022/12/28 14:20:25;;;;;;;20.67;3.17;;;;;;;;;;5023668;28;20132;-74
2022/12/28 14:22:50;;;;;;;12.68;1.88;;;;;;;;;;5026240;28;20041;-74
2022/12/28 14:25:18;;;;;;;12.95;2.13;;;;;;;;;;5026963;28;20116;-74
2022/12/28 14:27:45;;;;;;;16.05;2.20;;;;;;;;;;5035247;28;20370;-74
2022/12/28 14:30:26;;;;;;;19.40;3.50;;;;;;;;;;5028862;28;20076;-74
2022/12/28 14:32:52;;;;;;;24.83;3.08;;;;;;;;;;5027273;28;20053;-74
2022/12/28 14:35:21;;;;;;;15.02;3.53;;;;;;;;;;5031799;28;20030;-76
2022/12/28 14:37:55;;;;;;;18.98;2.53;;;;;;;;;;5022650;28;20053;-74
2022/12/28 14:40:32;;;;;;;14.98;2.20;;;;;;;;;;5021578;28;20048;-75
2022/12/28 14:43:08;;;;;;;11.85;1.90;;;;;;;;;;5024803;28;20397;-74
2022/12/28 14:45:52;;;;;;;13.07;1.80;;;;;;;;;;5015145;28;20038;-74
2022/12/28 14:48:29;;;;;;;;;;;;;;;;;;5016610;28;20044;-74
2022/12/28 14:51:00;;;;;;;17.65;2.03;;;;;;;;;;5024668;28;19968;-74
2022/12/28 14:53:26;;;;;;;14.85;2.15;;;;;;;;;;5025564;28;20137;-74
2022/12/28 14:55:52;;;;;;;14.95;2.10;;;;;;;;;;5016156;28;20113;-73
2022/12/28 14:58:27;;;;;;;10.98;2.70;;;;;;;;;;5026616;28;20069;-74
2022/12/28 15:01:04;;;;;;;6.15;1.83;;;;;;;;;;5047371;28;20088;-74
2022/12/28 15:03:47;;;;;;;11.70;2.85;;;;;;;;;;5015878;28;20040;-74
2022/12/28 15:06:13;;;;;;;11.98;2.17;;;;;;;;;;5016992;28;20034;-74
2022/12/28 15:08:38;;;;;;;10.57;1.50;;;;;;;;;;5020872;28;20041;-74
2022/12/28 15:11:04;;;;;;;16.30;3.78;;;;;;;;;;5017974;28;20034;-74
2022/12/28 15:13:29;;;;;;;15.68;2.22;;;;;;;;;;5030852;28;20196;-74
2022/12/28 15:16:00;;;;;;;21.92;8.18;;;;;;;;;;5033994;28;20048;-74
2022/12/28 15:18:26;;;;;;;34.20;8.15;;;;;;;;;;5018631;28;20045;-74
2022/12/28 15:20:52;;;;;;;35.25;4.05;;;;;;;;;;5019886;28;20037;-74